Time;durP1;ratioP1;P1;durP2;ratioP2;P2;SDS_P1;SDS_P2;PMS_P1;PMS_P2;Temp;Humidity;BMP_temperature;BMP_pressure;BME280_temperature;BME280_humidity;BME280_pressure;Samples;Min_cycle;Max_cycle;Signal;HPM_P1;HPM_P2
2024/01/08 00:00:29;;;;;;;6.75;6.15;;;8.90;99.90;;;;;;6151411;23;20021;-75
2024/01/08 00:02:54;;;;;;;6.82;6.28;;;8.90;99.90;;;;;;6177599;23;20011;-76
2024/01/08 00:05:20;;;;;;;7.68;6.97;;;9.00;99.90;;;;;;6178748;23;20460;-78
2024/01/08 00:07:46;;;;;;;6.55;6.15;;;8.90;99.90;;;;;;6177288;23;20044;-76
2024/01/08 00:10:12;;;;;;;6.53;5.95;;;8.90;99.90;;;;;;6178325;23;20341;-76
2024/01/08 00:12:37;;;;;;;6.70;6.10;;;8.90;99.90;;;;;;6177948;23;20087;-76
2024/01/08 00:15:03;;;;;;;5.95;5.55;;;8.80;99.90;;;;;;6178145;23;19997;-77
2024/01/08 00:17:29;;;;;;;6.72;6.13;;;8.80;99.90;;;;;;6154069;23;20468;-77
2024/01/08 00:19:54;;;;;;;5.68;5.28;;;8.80;99.90;;;;;;6179142;23;20004;-77
2024/01/08 00:22:20;;;;;;;6.82;6.30;;;8.80;99.90;;;;;;6153368;23;20032;-77
2024/01/08 00:24:46;;;;;;;6.20;5.65;;;8.80;99.90;;;;;;6153368;23;20016;-78
2024/01/08 00:27:11;;;;;;;6.65;5.72;;;8.80;99.90;;;;;;6152809;23;20009;-77
2024/01/08 00:29:37;;;;;;;7.50;6.25;;;8.80;99.90;;;;;;6153605;23;20048;-76
2024/01/08 00:32:05;;;;;;;7.40;6.70;;;8.80;99.90;;;;;;6179408;23;19997;-78
2024/01/08 00:34:31;;;;;;;7.13;6.15;;;8.70;99.90;;;;;;6153153;23;20055;-75
2024/01/08 00:36:56;;;;;;;7.85;6.68;;;8.70;99.90;;;;;;6153390;23;20461;-78
2024/01/08 00:39:23;;;;;;;7.18;6.18;;;8.70;99.90;;;;;;6178708;23;20009;-76
2024/01/08 00:41:49;;;;;;;7.15;6.45;;;8.70;99.90;;;;;;6180155;23;20333;-77
2024/01/08 00:44:14;;;;;;;6.20;5.60;;;8.70;99.90;;;;;;6179348;23;19997;-75
2024/01/08 00:46:40;;;;;;;6.65;5.95;;;8.70;99.90;;;;;;6179506;23;19997;-77
2024/01/08 00:49:05;;;;;;;5.25;4.75;;;8.60;99.90;;;;;;6179412;23;20011;-78
2024/01/08 00:51:31;;;;;;;5.78;5.28;;;8.60;99.90;;;;;;6178610;23;20005;-77
2024/01/08 00:53:57;;;;;;;6.35;5.75;;;8.60;99.90;;;;;;6153768;23;20039;-77
2024/01/08 00:56:23;;;;;;;5.75;5.15;;;8.60;99.90;;;;;;6152450;23;20011;-76
2024/01/08 00:58:51;;;;;;;4.25;3.97;;;8.60;99.90;;;;;;6179404;23;20008;-76
2024/01/08 01:01:17;;;;;;;4.85;4.50;;;8.60;99.90;;;;;;6153267;23;20092;-77
2024/01/08 01:03:43;;;;;;;4.47;4.18;;;8.60;99.90;;;;;;6152354;23;20401;-78
2024/01/08 01:06:08;;;;;;;5.15;4.85;;;8.60;99.90;;;;;;6179869;23;20013;-76
2024/01/08 01:08:34;;;;;;;5.03;4.65;;;8.60;99.90;;;;;;6152428;23;20009;-79
2024/01/08 01:11:00;;;;;;;7.80;5.97;;;8.60;99.90;;;;;;6152314;23;20009;-77
2024/01/08 01:13:26;;;;;;;6.03;5.43;;;8.60;99.90;;;;;;6179337;23;20005;-80
2024/01/08 01:15:52;;;;;;;5.68;5.15;;;8.60;99.90;;;;;;6152328;23;20039;-79
2024/01/08 01:18:18;;;;;;;5.80;5.30;;;8.60;99.90;;;;;;6153517;23;20437;-77
2024/01/08 01:20:43;;;;;;;4.70;4.30;;;8.50;99.90;;;;;;6178431;23;20009;-77
2024/01/08 01:23:09;;;;;;;5.85;4.63;;;8.50;99.90;;;;;;6153253;23;20012;-79
2024/01/08 01:25:35;;;;;;;4.95;4.50;;;8.40;99.90;;;;;;6152516;23;20005;-79
2024/01/08 01:28:00;;;;;;;4.80;4.50;;;8.50;99.90;;;;;;6152129;23;20455;-80
2024/01/08 01:30:26;;;;;;;5.05;4.65;;;8.50;99.90;;;;;;6153092;23;20147;-79
2024/01/08 01:32:52;;;;;;;4.75;4.35;;;8.40;99.90;;;;;;6178570;23;20001;-79
2024/01/08 01:35:17;;;;;;;5.60;5.10;;;8.40;99.90;;;;;;6153218;23;20001;-79
2024/01/08 01:37:44;;;;;;;4.75;4.40;;;8.40;99.90;;;;;;6152049;23;20001;-77
2024/01/08 01:40:10;;;;;;;4.97;4.55;;;8.50;99.90;;;;;;6152851;23;20437;-77
2024/01/08 01:42:36;;;;;;;5.18;4.65;;;8.50;99.90;;;;;;6179495;23;20167;-75
2024/01/08 01:45:03;;;;;;;6.05;5.10;;;8.40;99.90;;;;;;6179136;23;20016;-76
2024/01/08 01:47:28;;;;;;;6.18;4.93;;;8.40;99.90;;;;;;6180307;23;20040;-77
2024/01/08 01:49:54;;;;;;;4.38;4.07;;;8.40;99.90;;;;;;6152465;23;20373;-75
2024/01/08 01:52:21;;;;;;;4.30;4.00;;;8.50;99.90;;;;;;6153249;23;20005;-77
2024/01/08 01:54:50;;;;;;;4.40;4.00;;;8.50;99.90;;;;;;6178617;23;20004;-76
2024/01/08 01:57:17;;;;;;;4.25;3.97;;;8.50;99.90;;;;;;6152327;23;20005;-78
2024/01/08 01:59:43;;;;;;;4.38;4.00;;;8.50;99.90;;;;;;6153017;23;20027;-79
2024/01/08 02:02:11;;;;;;;3.72;3.53;;;8.50;99.90;;;;;;6178785;23;20001;-79
2024/01/08 02:04:38;;;;;;;5.10;3.20;;;8.40;99.90;;;;;;6153155;23;20610;-78
2024/01/08 02:07:05;;;;;;;3.38;3.17;;;8.40;99.90;;;;;;6155892;23;20345;-85
2024/01/08 02:09:31;;;;;;;4.03;3.72;;;8.40;99.90;;;;;;6157639;23;20144;-85
2024/01/08 02:11:57;;;;;;;3.55;3.35;;;8.40;99.90;;;;;;6157879;23;20416;-85
2024/01/08 02:14:22;;;;;;;3.63;3.20;;;8.30;99.90;;;;;;6183963;23;20004;-85
2024/01/08 02:16:48;;;;;;;3.40;3.10;;;8.40;99.90;;;;;;6183904;23;20004;-85
2024/01/08 02:19:14;;;;;;;2.92;2.72;;;8.30;99.90;;;;;;6157574;23;20507;-85
2024/01/08 02:21:39;;;;;;;2.97;2.78;;;8.30;99.90;;;;;;6157539;23;20015;-84
2024/01/08 02:24:06;;;;;;;3.28;2.95;;;8.30;99.90;;;;;;6157591;23;20015;-85
2024/01/08 02:26:33;;;;;;;2.63;2.35;;;8.30;99.90;;;;;;6183513;23;20005;-85
2024/01/08 02:28:59;;;;;;;3.22;3.00;;;8.30;99.90;;;;;;6157602;23;20449;-85
2024/01/08 02:31:25;;;;;;;3.10;2.85;;;8.20;99.90;;;;;;6157429;23;20016;-85
2024/01/08 02:33:51;;;;;;;2.50;2.40;;;8.30;99.90;;;;;;6157361;23;20333;-85
2024/01/08 02:36:16;;;;;;;2.50;2.40;;;8.20;99.90;;;;;;6183456;23;20029;-85
2024/01/08 02:38:42;;;;;;;2.53;2.30;;;8.20;99.90;;;;;;6183961;23;20465;-85
2024/01/08 02:41:08;;;;;;;2.55;2.45;;;8.10;99.90;;;;;;6157419;23;20009;-85
2024/01/08 02:43:33;;;;;;;2.42;2.22;;;8.20;99.90;;;;;;6157408;23;20005;-85
2024/01/08 02:45:59;;;;;;;2.55;2.38;;;8.20;99.90;;;;;;6157295;23;20012;-85
2024/01/08 02:48:25;;;;;;;2.60;2.40;;;8.10;99.90;;;;;;6183663;23;20012;-85
2024/01/08 02:50:50;;;;;;;2.65;2.45;;;8.10;99.90;;;;;;6157099;23;20083;-85
2024/01/08 02:53:16;;;;;;;2.40;2.20;;;8.10;99.90;;;;;;6157347;23;20005;-85
2024/01/08 02:55:42;;;;;;;2.35;2.25;;;8.20;99.90;;;;;;6157139;23;20409;-85
2024/01/08 02:58:08;;;;;;;2.60;2.50;;;8.10;99.90;;;;;;6157242;23;20005;-85
2024/01/08 03:00:34;;;;;;;2.28;2.17;;;8.10;99.90;;;;;;6156798;23;20449;-86
2024/01/08 03:03:00;;;;;;;2.33;2.22;;;8.00;99.90;;;;;;6157317;23;20009;-85
2024/01/08 03:05:26;;;;;;;2.92;2.40;;;8.10;99.90;;;;;;6157259;23;20005;-86
2024/01/08 03:07:51;;;;;;;2.85;2.45;;;8.10;99.90;;;;;;6157356;23;20005;-85
2024/01/08 03:10:17;;;;;;;3.03;2.65;;;8.10;99.90;;;;;;6183338;23;20467;-85
2024/01/08 03:12:43;;;;;;;4.07;2.50;;;8.10;99.90;;;;;;6183707;23;20008;-85
2024/01/08 03:15:09;;;;;;;2.30;2.20;;;8.00;99.90;;;;;;6156835;23;20304;-85
2024/01/08 03:17:35;;;;;;;2.47;2.28;;;8.10;99.90;;;;;;6183466;23;20021;-85
2024/01/08 03:20:02;;;;;;;2.40;2.20;;;8.10;99.90;;;;;;6183295;23;20001;-85
2024/01/08 03:22:28;;;;;;;2.85;2.10;;;8.10;99.90;;;;;;6157148;23;20005;-84
2024/01/08 03:24:53;;;;;;;1.98;1.88;;;8.10;99.90;;;;;;6183128;23;20047;-85
2024/01/08 03:27:19;;;;;;;1.83;1.73;;;8.10;99.90;;;;;;6183409;23;20089;-85
2024/01/08 03:29:45;;;;;;;1.75;1.60;;;8.10;99.90;;;;;;6156889;23;20068;-85
2024/01/08 03:32:11;;;;;;;3.33;1.67;;;8.10;99.90;;;;;;6157115;23;20433;-85
2024/01/08 03:34:37;;;;;;;1.80;1.70;;;8.10;99.90;;;;;;6157123;23;20142;-85
2024/01/08 03:37:03;;;;;;;1.50;1.40;;;8.10;99.90;;;;;;6157002;23;20022;-85
2024/01/08 03:39:30;;;;;;;2.92;1.30;;;8.10;99.90;;;;;;6156995;23;20001;-85
2024/01/08 03:41:56;;;;;;;1.33;1.23;;;8.10;99.90;;;;;;6183524;23;20047;-86
2024/01/08 03:44:23;;;;;;;2.65;1.38;;;8.10;99.90;;;;;;6156728;23;20001;-85
2024/01/08 03:46:49;;;;;;;1.63;1.45;;;8.20;99.90;;;;;;6183389;23;19997;-85
2024/01/08 03:49:14;;;;;;;1.42;1.33;;;8.20;99.90;;;;;;6184332;23;20054;-85
2024/01/08 03:51:40;;;;;;;1.40;1.30;;;8.20;99.90;;;;;;6185234;23;20001;-85
2024/01/08 03:54:06;;;;;;;1.83;1.50;;;8.20;99.90;;;;;;6158869;23;20001;-85
2024/01/08 03:56:31;;;;;;;1.50;1.40;;;8.20;99.90;;;;;;6158502;23;20009;-85
2024/01/08 03:58:57;;;;;;;2.30;1.17;;;8.20;99.90;;;;;;6158393;23;20002;-85
2024/01/08 04:01:23;;;;;;;1.50;1.40;;;8.20;99.90;;;;;;6158984;23;20052;-85
2024/01/08 04:03:49;;;;;;;4.38;1.20;;;8.10;99.90;;;;;;6158713;23;20012;-85
2024/01/08 04:06:16;;;;;;;1.15;1.05;;;8.20;99.90;;;;;;6158553;23;20028;-85
2024/01/08 04:08:42;;;;;;;3.60;1.23;;;8.20;99.90;;;;;;6158691;23;20016;-85
2024/01/08 04:11:08;;;;;;;2.35;1.33;;;8.20;99.90;;;;;;6158604;23;20425;-85
2024/01/08 04:13:36;;;;;;;1.25;1.13;;;8.20;99.90;;;;;;6158746;23;20001;-84
2024/01/08 04:16:02;;;;;;;3.88;1.60;;;8.10;99.90;;;;;;6184714;23;20310;-83
2024/01/08 04:18:27;;;;;;;2.55;1.40;;;8.10;99.90;;;;;;6158546;23;20001;-83
2024/01/08 04:20:53;;;;;;;2.38;1.40;;;8.10;99.90;;;;;;6184908;23;20009;-83
2024/01/08 04:23:19;;;;;;;1.10;1.10;;;8.10;99.90;;;;;;6158639;23;20425;-83
2024/01/08 04:25:45;;;;;;;2.28;1.17;;;8.10;99.90;;;;;;6158342;23;20012;-83
2024/01/08 04:28:10;;;;;;;1.20;1.10;;;8.10;99.90;;;;;;6158227;23;20009;-82
2024/01/08 04:30:36;;;;;;;1.33;1.17;;;8.20;99.90;;;;;;6184553;23;20015;-82
2024/01/08 04:33:02;;;;;;;1.17;1.17;;;8.10;99.90;;;;;;6158637;23;20064;-83
2024/01/08 04:35:28;;;;;;;1.42;1.30;;;8.10;99.90;;;;;;6158416;23;20084;-83
2024/01/08 04:37:54;;;;;;;4.20;1.52;;;8.10;99.90;;;;;;6184686;23;20036;-82
2024/01/08 04:40:19;;;;;;;3.60;2.10;;;8.10;99.90;;;;;;6158187;23;20009;-83
2024/01/08 04:42:45;;;;;;;2.80;1.60;;;8.10;99.90;;;;;;6184663;23;20464;-83
2024/01/08 04:45:11;;;;;;;1.60;1.20;;;8.10;99.90;;;;;;6158404;23;20009;-83
2024/01/08 04:47:37;;;;;;;4.28;1.88;;;8.10;99.90;;;;;;6158239;23;20429;-83
2024/01/08 04:50:02;;;;;;;1.08;1.02;;;8.10;99.90;;;;;;6184442;23;20008;-83
2024/01/08 04:52:28;;;;;;;2.42;1.13;;;8.10;99.90;;;;;;6158134;23;20429;-83
2024/01/08 04:54:54;;;;;;;2.42;1.23;;;8.10;99.90;;;;;;6184415;23;20076;-83
2024/01/08 04:57:19;;;;;;;1.35;1.25;;;8.10;99.90;;;;;;6184565;23;20444;-84
2024/01/08 04:59:45;;;;;;;1.92;1.30;;;8.10;99.90;;;;;;6157878;23;20060;-83
2024/01/08 05:02:11;;;;;;;5.70;1.30;;;8.10;99.90;;;;;;6184375;23;20001;-83
2024/01/08 05:04:37;;;;;;;1.23;1.13;;;8.10;99.90;;;;;;6184476;23;20143;-83
2024/01/08 05:07:04;;;;;;;3.08;1.30;;;8.10;99.90;;;;;;6155308;23;20005;-83
2024/01/08 05:09:30;;;;;;;3.63;1.50;;;8.10;99.90;;;;;;6158018;23;20036;-83
2024/01/08 05:11:56;;;;;;;1.83;1.17;;;8.10;99.90;;;;;;6157686;23;20437;-83
2024/01/08 05:14:25;;;;;;;1.63;1.50;;;8.10;99.90;;;;;;6157979;23;20005;-85
2024/01/08 05:16:53;;;;;;;4.05;1.30;;;8.10;99.90;;;;;;6184359;23;20337;-85
2024/01/08 05:19:19;;;;;;;1.77;1.52;;;8.10;99.90;;;;;;6158034;23;20143;-86
2024/01/08 05:21:45;;;;;;;3.22;1.40;;;8.20;99.90;;;;;;6157863;23;20045;-85
2024/01/08 05:24:11;;;;;;;1.95;1.20;;;8.20;99.90;;;;;;6184268;23;20430;-85
2024/01/08 05:26:36;;;;;;;1.67;1.45;;;8.20;99.90;;;;;;6184091;23;20016;-86
2024/01/08 05:29:02;;;;;;;1.95;1.20;;;8.20;99.90;;;;;;6184370;23;20005;-86
2024/01/08 05:31:28;;;;;;;2.15;1.08;;;8.10;99.90;;;;;;6157671;23;20009;-86
2024/01/08 05:33:53;;;;;;;1.10;1.00;;;8.10;99.90;;;;;;6157790;23;20060;-84
2024/01/08 05:36:19;;;;;;;2.15;1.20;;;8.10;99.90;;;;;;6157806;23;20252;-85
2024/01/08 05:38:45;;;;;;;3.53;1.35;;;8.10;99.90;;;;;;6157687;23;20484;-84
2024/01/08 05:41:10;;;;;;;2.53;1.30;;;8.10;99.90;;;;;;6183896;23;20012;-85
2024/01/08 05:43:39;;;;;;;2.30;1.48;;;8.10;99.90;;;;;;6157820;23;20016;-85
2024/01/08 05:46:09;;;;;;;3.10;1.50;;;8.10;99.90;;;;;;6157418;23;20009;-85
2024/01/08 05:48:37;;;;;;;1.40;1.30;;;8.20;99.90;;;;;;6157525;23;20009;-85
2024/01/08 05:51:07;;;;;;;3.10;1.33;;;8.20;99.90;;;;;;6184013;23;20005;-85
2024/01/08 05:53:33;;;;;;;1.73;1.30;;;8.20;99.90;;;;;;6157657;23;20001;-86
2024/01/08 05:55:59;;;;;;;2.22;1.42;;;8.20;99.90;;;;;;6180324;23;20008;-86
2024/01/08 05:58:25;;;;;;;6.75;1.92;;;8.20;99.90;;;;;;6157319;23;20036;-86
2024/01/08 06:00:53;;;;;;;5.28;1.40;;;8.20;99.90;;;;;;6157617;23;20024;-85
2024/01/08 06:03:20;;;;;;;2.20;1.30;;;8.20;99.90;;;;;;6157619;23;20095;-86
2024/01/08 06:05:46;;;;;;;2.80;1.65;;;8.20;99.90;;;;;;6183862;23;20036;-86
2024/01/08 06:08:12;;;;;;;2.75;1.70;;;8.20;99.90;;;;;;6183772;23;20377;-85
2024/01/08 06:10:38;;;;;;;2.88;2.03;;;8.20;99.90;;;;;;6156761;23;20009;-86
2024/01/08 06:13:05;;;;;;;3.22;1.60;;;8.20;99.90;;;;;;6157206;23;20051;-86
2024/01/08 06:15:31;;;;;;;4.05;1.60;;;8.10;99.90;;;;;;6157349;23;20005;-85
2024/01/08 06:17:56;;;;;;;3.88;1.70;;;8.00;99.90;;;;;;6183438;23;20004;-86
2024/01/08 06:20:22;;;;;;;5.22;1.92;;;8.00;99.90;;;;;;6157124;23;20009;-85
2024/01/08 06:22:48;;;;;;;3.28;1.65;;;8.00;99.90;;;;;;6157044;23;20005;-86
2024/01/08 06:25:14;;;;;;;2.35;2.15;;;8.10;99.90;;;;;;6183424;23;20005;-86
2024/01/08 06:27:40;;;;;;;2.28;1.83;;;8.10;99.90;;;;;;6183339;23;20075;-85
2024/01/08 06:30:06;;;;;;;2.13;1.90;;;8.10;99.90;;;;;;6157133;23;20318;-85
2024/01/08 06:32:32;;;;;;;2.35;2.00;;;8.00;99.90;;;;;;6157079;23;20001;-83
2024/01/08 06:34:57;;;;;;;3.33;2.20;;;8.00;99.90;;;;;;6183775;23;20055;-84
2024/01/08 06:37:23;;;;;;;5.70;2.33;;;8.00;99.90;;;;;;6157190;23;20330;-83
2024/01/08 06:39:49;;;;;;;5.10;2.63;;;8.10;99.90;;;;;;6157157;23;20001;-83
2024/01/08 06:42:14;;;;;;;5.85;3.00;;;8.10;99.90;;;;;;6156616;23;20005;-84
2024/01/08 06:44:40;;;;;;;4.78;2.53;;;8.10;99.90;;;;;;6183423;23;20002;-84
2024/01/08 06:47:06;;;;;;;8.70;3.65;;;8.10;99.90;;;;;;6183454;23;20076;-83
2024/01/08 06:49:31;;;;;;;6.65;3.50;;;8.10;99.90;;;;;;6183354;23;20056;-84
2024/01/08 06:51:59;;;;;;;12.25;3.50;;;8.00;99.90;;;;;;6157121;23;20337;-83
2024/01/08 06:54:25;;;;;;;4.05;3.70;;;8.10;99.90;;;;;;6183510;23;20001;-83
2024/01/08 06:56:50;;;;;;;4.78;4.03;;;8.10;99.90;;;;;;6156795;23;20016;-83
2024/01/08 06:59:18;;;;;;;3.05;2.80;;;8.10;99.90;;;;;;6156121;23;20128;-83
2024/01/08 07:01:44;;;;;;;6.00;3.17;;;8.10;99.90;;;;;;6154486;23;20377;-83
2024/01/08 07:04:10;;;;;;;4.45;2.97;;;8.10;99.90;;;;;;6154819;23;20055;-83
2024/01/08 07:06:35;;;;;;;3.20;2.50;;;8.00;99.90;;;;;;6155426;23;20001;-83
2024/01/08 07:09:02;;;;;;;7.90;3.30;;;8.10;99.90;;;;;;6182401;23;20004;-84
2024/01/08 07:11:28;;;;;;;3.28;2.97;;;8.00;99.90;;;;;;6156223;23;20009;-84
2024/01/08 07:13:54;;;;;;;7.30;3.05;;;8.10;99.90;;;;;;6156851;23;20515;-84
2024/01/08 07:16:20;;;;;;;5.13;2.30;;;8.10;99.90;;;;;;6156836;23;20005;-83
2024/01/08 07:18:45;;;;;;;6.85;2.42;;;8.10;99.90;;;;;;6156918;23;20076;-83
2024/01/08 07:21:16;;;;;;;5.28;2.45;;;8.10;99.90;;;;;;6183371;23;20206;-83
2024/01/08 07:23:47;;;;;;;4.30;2.38;;;8.10;99.90;;;;;;6158245;23;20013;-84
2024/01/08 07:26:14;;;;;;;3.25;2.60;;;8.10;99.90;;;;;;6158858;23;20389;-85
2024/01/08 07:28:49;;;;;;;2.42;2.22;;;8.10;99.90;;;;;;6158740;23;20341;-85
2024/01/08 07:31:17;;;;;;;6.57;2.58;;;8.10;99.90;;;;;;6185272;23;20008;-86
2024/01/08 07:33:43;;;;;;;5.82;2.42;;;8.10;99.90;;;;;;6159078;23;20268;-86
2024/01/08 07:36:09;;;;;;;4.88;2.83;;;8.10;99.90;;;;;;6158864;23;20005;-85
2024/01/08 07:38:36;;;;;;;3.45;3.10;;;8.10;99.90;;;;;;6159025;23;20005;-86
2024/01/08 07:41:02;;;;;;;3.20;2.90;;;8.10;99.90;;;;;;6158719;23;20013;-84
2024/01/08 07:43:28;;;;;;;7.03;2.83;;;8.10;99.90;;;;;;6158719;23;20317;-85
2024/01/08 07:45:54;;;;;;;16.23;5.10;;;8.00;99.90;;;;;;6158615;23;20019;-85
2024/01/08 07:48:20;;;;;;;10.70;6.38;;;8.10;99.90;;;;;;6158871;23;20433;-85
2024/01/08 07:50:47;;;;;;;7.95;5.25;;;8.10;99.90;;;;;;6158679;23;20088;-85
2024/01/08 07:53:14;;;;;;;5.35;3.15;;;8.10;99.90;;;;;;6158722;23;20009;-85
2024/01/08 07:55:40;;;;;;;6.72;4.00;;;8.10;99.90;;;;;;6158681;23;20085;-85
2024/01/08 07:58:05;;;;;;;6.30;4.25;;;8.10;99.90;;;;;;6158792;23;20001;-85
2024/01/08 08:00:31;;;;;;;4.18;3.42;;;8.20;99.90;;;;;;6158564;23;20017;-86
2024/01/08 08:02:57;;;;;;;8.02;3.33;;;8.20;99.90;;;;;;6158514;23;20385;-84
2024/01/08 08:05:22;;;;;;;5.72;2.90;;;8.20;99.90;;;;;;6158790;23;20008;-84
2024/01/08 08:07:49;;;;;;;6.35;3.10;;;8.20;99.90;;;;;;6158497;23;20032;-84
2024/01/08 08:10:15;;;;;;;3.53;2.88;;;8.20;99.90;;;;;;6158321;23;20028;-84
2024/01/08 08:12:41;;;;;;;4.95;2.72;;;8.20;99.90;;;;;;6158582;23;20337;-84
2024/01/08 08:15:07;;;;;;;5.20;2.67;;;8.20;99.90;;;;;;6184822;23;19997;-85
2024/01/08 08:17:33;;;;;;;4.38;3.50;;;8.20;99.90;;;;;;6158182;23;20005;-83
2024/01/08 08:20:05;;;;;;;5.10;3.00;;;8.20;99.90;;;;;;6158518;23;20016;-84
2024/01/08 08:22:31;;;;;;;7.78;3.45;;;8.30;99.90;;;;;;6158433;23;20012;-84
2024/01/08 08:24:57;;;;;;;3.95;3.47;;;8.30;99.90;;;;;;6158487;23;20036;-84
2024/01/08 08:27:23;;;;;;;4.03;3.50;;;8.30;99.90;;;;;;6184668;23;20100;-84
2024/01/08 08:29:49;;;;;;;5.63;3.28;;;8.40;99.90;;;;;;6158263;23;20040;-84
2024/01/08 08:32:15;;;;;;;4.50;3.80;;;8.40;99.90;;;;;;6184783;23;20001;-84
2024/01/08 08:34:41;;;;;;;5.55;4.35;;;8.40;99.90;;;;;;6157924;23;20001;-84
2024/01/08 08:37:10;;;;;;;9.05;3.63;;;8.40;99.90;;;;;;6184705;23;20329;-84
2024/01/08 08:39:36;;;;;;;5.50;3.72;;;8.40;99.90;;;;;;6184747;23;20012;-84
2024/01/08 08:42:03;;;;;;;4.40;3.53;;;8.50;99.90;;;;;;6158100;23;20148;-84
2024/01/08 08:44:29;;;;;;;4.22;3.60;;;8.50;99.90;;;;;;6158006;23;20009;-84
2024/01/08 08:46:57;;;;;;;6.10;3.72;;;8.50;99.90;;;;;;6158232;23;20005;-84
2024/01/08 08:49:22;;;;;;;5.22;3.33;;;8.50;99.90;;;;;;6158218;23;20017;-85
2024/01/08 08:51:48;;;;;;;3.72;3.42;;;8.60;99.90;;;;;;6157912;23;20326;-84
2024/01/08 08:54:14;;;;;;;12.32;9.25;;;8.60;99.90;;;;;;6158272;23;20008;-84
2024/01/08 08:56:40;;;;;;;11.18;9.02;;;8.60;99.90;;;;;;6157844;23;20437;-85
2024/01/08 08:59:05;;;;;;;11.52;8.95;;;8.70;99.90;;;;;;6157925;23;20070;-84
2024/01/08 09:01:31;;;;;;;10.77;9.00;;;8.70;99.90;;;;;;6158009;23;20005;-85
2024/01/08 09:03:57;;;;;;;21.70;16.95;;;8.70;99.90;;;;;;6157872;23;20013;-84
2024/01/08 09:06:24;;;;;;;24.35;17.45;;;8.70;99.90;;;;;;6158052;23;20005;-84
2024/01/08 09:08:56;;;;;;;25.35;19.02;;;8.80;99.90;;;;;;6184594;23;20024;-85
2024/01/08 09:11:22;;;;;;;21.70;17.13;;;8.80;99.90;;;;;;6152011;23;20012;-84
2024/01/08 09:13:48;;;;;;;15.55;12.25;;;8.80;99.90;;;;;;6184417;23;20043;-82
2024/01/08 09:16:14;;;;;;;11.55;8.82;;;8.90;99.90;;;;;;6184325;23;20075;-82
2024/01/08 09:18:41;;;;;;;7.80;6.15;;;8.90;99.90;;;;;;6184293;23;19997;-82
2024/01/08 09:21:10;;;;;;;6.88;4.15;;;8.90;99.90;;;;;;6157394;23;20040;-82
2024/01/08 09:23:37;;;;;;;5.95;3.90;;;9.00;99.90;;;;;;6157869;23;20330;-82
2024/01/08 09:26:04;;;;;;;4.10;3.65;;;9.00;99.90;;;;;;6157542;23;20009;-82
2024/01/08 09:28:30;;;;;;;5.15;3.88;;;9.00;99.90;;;;;;6157903;23;20005;-82
2024/01/08 09:30:56;;;;;;;5.88;3.03;;;9.10;99.90;;;;;;6157787;23;20097;-83
2024/01/08 09:33:22;;;;;;;4.30;3.90;;;9.10;99.90;;;;;;6157852;23;20037;-80
2024/01/08 09:35:48;;;;;;;4.50;3.67;;;9.10;99.90;;;;;;6157593;23;20337;-80
2024/01/08 09:38:13;;;;;;;4.88;3.58;;;9.20;99.90;;;;;;6184085;23;20001;-80
2024/01/08 09:40:41;;;;;;;6.40;3.60;;;9.20;99.90;;;;;;6157345;23;20484;-80
2024/01/08 09:43:08;;;;;;;7.20;3.28;;;9.20;99.90;;;;;;6157692;23;20009;-80
2024/01/08 09:45:34;;;;;;;4.00;3.33;;;9.20;99.90;;;;;;6157638;23;20087;-80
2024/01/08 09:48:01;;;;;;;6.47;3.97;;;9.30;99.90;;;;;;6184011;23;20028;-80
2024/01/08 09:50:27;;;;;;;4.88;3.38;;;9.30;99.90;;;;;;6183556;23;20445;-80
2024/01/08 09:52:54;;;;;;;3.58;3.17;;;9.30;99.90;;;;;;6157557;23;20012;-80
2024/01/08 09:55:20;;;;;;;5.72;3.65;;;9.40;99.90;;;;;;6157223;23;20012;-80
2024/01/08 09:57:46;;;;;;;5.22;4.20;;;9.40;99.90;;;;;;6183595;23;20433;-80
2024/01/08 10:00:13;;;;;;;4.50;3.13;;;9.40;99.90;;;;;;6183721;23;20024;-80
2024/01/08 10:02:40;;;;;;;5.10;3.50;;;9.40;99.90;;;;;;6157184;23;20008;-79
2024/01/08 10:05:07;;;;;;;6.05;3.13;;;9.40;99.90;;;;;;6157467;23;20484;-80
2024/01/08 10:07:35;;;;;;;6.80;3.50;;;9.50;99.90;;;;;;6183333;23;20001;-80
2024/01/08 10:10:01;;;;;;;6.22;4.18;;;9.50;99.90;;;;;;6183702;23;20008;-80
2024/01/08 10:12:28;;;;;;;7.35;4.75;;;9.50;99.90;;;;;;6183427;23;20001;-80
2024/01/08 10:14:55;;;;;;;9.45;6.85;;;9.50;99.90;;;;;;6157058;23;20314;-80
2024/01/08 10:17:21;;;;;;;6.03;4.97;;;9.50;99.90;;;;;;6157158;23;20024;-80
2024/01/08 10:19:48;;;;;;;4.65;4.20;;;9.50;99.90;;;;;;6157185;23;20319;-80
2024/01/08 10:22:14;;;;;;;6.95;3.92;;;9.50;99.90;;;;;;6183413;23;20054;-79
2024/01/08 10:24:43;;;;;;;8.10;4.00;;;9.60;99.90;;;;;;6183604;23;19997;-79
2024/01/08 10:27:10;;;;;;;5.30;3.33;;;9.60;99.90;;;;;;6183486;23;20004;-80
2024/01/08 10:29:37;;;;;;;4.60;3.05;;;9.60;99.90;;;;;;6157016;23;20337;-80
2024/01/08 10:32:04;;;;;;;8.13;3.10;;;9.70;99.90;;;;;;6156970;23;20127;-80
2024/01/08 10:34:30;;;;;;;9.23;3.47;;;9.70;99.90;;;;;;6157002;23;20005;-79
2024/01/08 10:36:57;;;;;;;6.72;2.67;;;9.70;99.90;;;;;;6156857;23;20005;-80
2024/01/08 10:39:24;;;;;;;3.03;2.22;;;9.70;99.90;;;;;;6183468;23;20001;-79
2024/01/08 10:41:50;;;;;;;4.88;2.10;;;9.70;93.10;;;;;;6183391;23;20005;-80
2024/01/08 10:44:16;;;;;;;3.90;2.50;;;9.80;78.20;;;;;;6156774;23;20087;-80
2024/01/08 10:46:57;;;;;;;7.00;2.85;;;9.80;83.70;;;;;;6156606;23;20080;-79
2024/01/08 10:49:33;;;;;;;3.08;2.38;;;9.80;76.80;;;;;;6183048;23;20059;-80
2024/01/08 10:52:00;;;;;;;4.13;2.78;;;9.80;37.20;;;;;;6156660;23;20005;-80
2024/01/08 10:54:39;;;;;;;5.13;2.72;;;9.80;77.30;;;;;;6156604;23;20008;-79
2024/01/08 10:57:10;;;;;;;8.05;2.65;;;9.80;76.80;;;;;;6182706;23;19997;-82
2024/01/08 10:59:38;;;;;;;5.75;3.70;;;9.90;90.90;;;;;;6156747;23;20033;-82
2024/01/08 11:02:04;;;;;;;4.93;3.75;;;9.90;95.60;;;;;;6183149;23;20076;-80
2024/01/08 11:04:30;;;;;;;5.93;4.30;;;9.90;95.20;;;;;;6183158;23;20025;-79
2024/01/08 11:06:57;;;;;;;7.22;4.18;;;9.90;94.70;;;;;;6182910;23;20390;-79
2024/01/08 11:09:29;;;;;;;8.85;4.40;;;9.90;96.00;;;;;;6156998;23;20013;-80
2024/01/08 11:11:55;;;;;;;9.55;4.90;;;9.80;97.30;;;;;;6156589;23;20314;-82
2024/01/08 11:14:23;;;;;;;7.93;5.00;;;9.80;98.80;;;;;;6182985;23;20012;-80
2024/01/08 11:16:50;;;;;;;7.32;4.50;;;9.80;99.90;;;;;;6182949;23;20005;-80
2024/01/08 11:19:18;;;;;;;8.45;4.43;;;9.80;99.10;;;;;;6156843;23;20005;-80
2024/01/08 11:21:47;;;;;;;5.78;4.10;;;9.90;96.00;;;;;;6183025;23;20008;-79
2024/01/08 11:24:13;;;;;;;11.57;4.40;;;9.90;94.70;;;;;;6156907;23;20063;-79
2024/01/08 11:26:48;;;;;;;14.35;5.32;;;9.90;92.30;;;;;;6156074;23;20345;-79
2024/01/08 11:29:16;;;;;;;9.40;4.05;;;9.90;91.20;;;;;;6156618;23;20012;-82
2024/01/08 11:31:48;;;;;;;5.38;3.95;;;10.00;94.10;;;;;;6156760;23;20061;-79
2024/01/08 11:34:32;;;;;;;;;;;9.90;93.00;;;;;;6157505;23;20421;-82
2024/01/08 11:37:10;;;;;;;5.05;4.38;;;9.90;72.20;;;;;;6182937;23;19934;-82
2024/01/08 11:39:41;;;;;;;6.05;4.35;;;9.90;87.10;;;;;;6156858;23;20008;-81
2024/01/08 11:42:07;;;;;;;9.50;4.85;;;10.00;93.60;;;;;;6156290;23;20075;-82
2024/01/08 11:44:33;;;;;;;13.82;4.55;;;10.00;33.40;;;;;;6156745;23;20027;-82
2024/01/08 11:46:59;;;;;;;6.20;3.90;;;10.00;57.00;;;;;;6156514;23;20443;-81
2024/01/08 11:49:25;;;;;;;11.40;4.38;;;10.00;58.60;;;;;;6156754;23;20028;-82
2024/01/08 11:51:57;;;;;;;10.15;4.40;;;10.00;37.80;;;;;;6182721;23;20164;-82
2024/01/08 11:54:22;;;;;;;8.32;4.60;;;10.10;55.90;;;;;;6156621;23;20005;-81
2024/01/08 11:56:49;;;;;;;8.05;5.38;;;10.10;69.00;;;;;;6156387;23;20489;-81
2024/01/08 11:59:35;;;;;;;7.53;4.90;;;10.10;84.20;;;;;;6156415;23;20023;-82
2024/01/08 12:02:27;;;;;;;21.85;6.95;;;10.10;89.90;;;;;;6183124;23;20013;-81
2024/01/08 12:04:57;;;;;;;11.55;6.05;;;10.10;87.50;;;;;;6152486;23;20008;-82
2024/01/08 12:07:25;;;;;;;10.23;6.55;;;10.10;90.20;;;;;;6156645;23;20005;-82
2024/01/08 12:09:51;;;;;;;6.78;6.07;;;10.10;77.90;;;;;;6183277;23;20055;-82
2024/01/08 12:12:18;;;;;;;8.77;6.57;;;10.00;85.40;;;;;;6184771;23;20074;-82
2024/01/08 12:14:48;;;;;;;8.25;6.38;;;10.00;91.60;;;;;;6184473;23;20084;-81
2024/01/08 12:17:16;;;;;;;12.85;6.72;;;10.10;94.80;;;;;;6184659;23;19997;-81
2024/01/08 12:19:47;;;;;;;15.95;6.88;;;10.10;96.80;;;;;;6184315;23;20084;-82
2024/01/08 12:22:14;;;;;;;11.18;6.50;;;10.10;96.70;;;;;;6158254;23;20005;-82
2024/01/08 12:24:41;;;;;;;8.38;5.70;;;10.10;92.60;;;;;;6184500;23;20434;-82
2024/01/08 12:27:08;;;;;;;12.25;6.57;;;10.10;88.20;;;;;;6158145;23;20087;-82
2024/01/08 12:29:41;;;;;;;12.65;7.35;;;10.10;95.10;;;;;;6184486;23;20001;-82
2024/01/08 12:32:13;;;;;;;16.13;7.25;;;10.10;92.20;;;;;;6158202;23;20340;-82
2024/01/08 12:34:42;;;;;;;;;;;10.10;94.30;;;;;;6158799;23;20040;-82
2024/01/08 12:37:09;;;;;;;11.00;6.90;;;10.10;92.50;;;;;;6184458;23;19900;-82
2024/01/08 12:39:35;;;;;;;15.27;7.30;;;10.10;87.90;;;;;;6158249;23;20009;-82
2024/01/08 12:42:04;;;;;;;12.48;8.73;;;10.10;94.40;;;;;;6157807;23;20437;-82
2024/01/08 12:44:31;;;;;;;21.77;8.95;;;10.10;93.30;;;;;;6184506;23;20001;-82
2024/01/08 12:46:58;;;;;;;18.10;7.72;;;10.10;96.20;;;;;;6184463;23;20005;-82
2024/01/08 12:49:25;;;;;;;14.32;7.75;;;10.10;95.80;;;;;;6157920;23;20008;-82
2024/01/08 12:51:52;;;;;;;13.43;8.82;;;10.10;96.00;;;;;;6157941;23;20006;-82